Monahans, TX

11:06 AM CDT on May 04, 2015 (GMT -0500)
Odessa-Schlemeyer | | Change Station
CLOSE
Current Station
Airport
Location: Odessa,
Elevation: 2999 ft
Nearby Weather Stations

Elev 2999 ft 31.92 °N, 102.39 °W | Updated 13 minutes ago

Overcast
Overcast
72 °F
Feels Like 72 °F
N
15
Wind Variable Wind from South

Today
High -- | Low -- °F
--% Chance of Precip.
Yesterday
High -- | Low -- °F
Precip. -- in
7:03 AM 8:33 PM
Full, 100% visible
Pressure 29.91 in
Visibility 9.0 miles
Clouds Overcast 3600 ft
Dew Point 60 °F
Humidity 66%
Rainfall 0.00 in
Snow Depth Not available.
UV 2 out of 12
Pollen 6.50 out of 12
Air Quality Not available.
Flu Activity Sporadic
METAR KODO 041553Z AUTO 17013KT 9SM OVC036 22/16 A3002 RMK AO2 SLP126 T02220156

More Conditions Fewer Conditions

Pressure 29.91 in
Visibility 9.0 miles
Clouds Overcast 3600 ft
Dew Point 60 °F
Humidity 66%
Rainfall 0.00 in
Snow Depth Not available.
UV 2 out of 12
Pollen 6.50 out of 12
Air Quality Not available.
Flu Activity Sporadic
METAR KODO 041553Z AUTO 17013KT 9SM OVC036 22/16 A3002 RMK AO2 SLP126 T02220156

More Conditions Fewer Conditions

Nepal has a long way to go to dig out and rebuild from a devastating earthquake. We have teamed up with several charities and organizations to make contributing to the relief effort as easy as possible.
How you can help: Portlight Strategies | Red Cross

10-Day Weather Forecast

Almanac

Astronomy

May. 04, 2015 Rise Set
Actual Time
Civil Twilight
Nautical Twilight
Astronomical Twilight
Moon
Length of Visible Light
Length of Day
Tomorrow will be .
, % of the Moon is Illuminated

Today's Extremes

State Highs State Lows

Community

WunderPhotos

Upload Photos

1,818,643 photos uploaded!

WunderBlogs® & News

Nearby

Air Quality

  Air Quality AQ Index Pollutant
Not available.

Snow Depth

Station Depth Elevation

Earthquake Activity

City Distance Mag. Time & Date
Minimum magnitude displayed is 2.5.

Coastal Water Temperatures

Place Temperature

Stations

Nearby Weather Stations

Station Location Temp. Windchill Dew Point Humidity Wind Precip. Elev Updated Type